Hovedside
METAR-TAF:

METAR-TAF

Lufthavner :

Halifax, Nova Scotia, Canada

Halifax Stanfield internasjonale lufthavn

breddegrad: 44-53N, lengdegrad: 063-30W, høyde over havet: 145 m

Gjeldene værobservasjon

Denne rapporten ble laget for 22 minutter siden, klokken 22:00 UTC
Vind 7 kt fra Vest-nordvest
Temperatur -4°C
Luftfuktighet 63%
Trykk 1017 hPa
Sikt: 24.1 km
Få skyer i en høyde av 25000 ft

METAR: CYHZ 212200Z 30007KT 15SM FEW250 M04/M10 A3002 RMK CI2 SLP175

Tid: 18:22 (22:22 UTC)

Varsel

Denne rapporten ble laget for 1 time og 44 minutter siden, klokken 20:38 UTC
Varsel gyldig fra 21. klokken 21 UTC til 22. klokken 18 UTC
Vind 15 kt fra Nordvest
Sikt: 10 km
Skyfri himmel
Blir
fra 22. klokken 03 UTC til 22. klokken 05 UTC
Vind 8 kt fra Nordvest
Fra 22. klokken 0900 UTC
Vind 8 kt fra Nord
Sikt: 10 km
Brutte skyer i en høyde av 15000 ft

TAF: CYHZ 212038Z 2121/2218 31015KT P6SM SKC BECMG 2203/2205 32008KT FM220900 35008KT P6SM BKN150 RMK NXT FCST BY 220000Z

Værobservasjoner og værvarsel for over 4000 flyplasser (METAR- og TAF-rapporter).

Tilgjengelige stasjoner er representert av de røde og gule prikkene på kartet.

Hold musepekeren over prikken for å se navnet på stasjonen.

Klikk så for å se værobservasjoner og -varsler.

For å forandre kartet kan du klikke på den grønne knappen med svart kryss for å zoome inn, på den grønne knappen med strek for å zoome ut, eller på de grønne pilene for å se tilstøtende kart.


METAR-TAF: